createdAt,value
2018-11-26T00:00:35.892Z,30.87
2018-11-26T00:03:10.201Z,30.70
2018-11-26T00:05:39.508Z,30.67
2018-11-26T00:08:12.140Z,28.73
2018-11-26T00:12:00.402Z,30.50
2018-11-26T00:14:28.819Z,29.73
2018-11-26T00:16:57.127Z,29.67
2018-11-26T00:19:25.596Z,30.50
2018-11-26T00:21:53.978Z,30.53
2018-11-26T00:24:22.199Z,31.20
2018-11-26T00:26:50.532Z,31.60
2018-11-26T00:29:18.813Z,31.30
2018-11-26T00:31:47.098Z,30.37
2018-11-26T00:34:16.735Z,30.40
2018-11-26T00:36:45.003Z,31.30
2018-11-26T00:39:13.472Z,31.70
2018-11-26T00:41:41.912Z,33.23
2018-11-26T00:44:10.326Z,32.13
2018-11-26T00:46:38.663Z,31.43
2018-11-26T00:49:06.939Z,33.30
2018-11-26T00:51:35.333Z,32.67
2018-11-26T00:54:03.696Z,32.67
2018-11-26T00:56:31.953Z,33.00
2018-11-26T00:59:00.316Z,32.27
2018-11-26T01:01:28.604Z,33.07
2018-11-26T01:03:57.003Z,32.37
2018-11-26T01:06:25.585Z,34.17
2018-11-26T01:08:53.927Z,34.70
2018-11-26T01:11:22.185Z,34.10
2018-11-26T01:13:50.537Z,31.03
2018-11-26T01:16:18.840Z,35.40
2018-11-26T01:18:47.372Z,33.50
2018-11-26T01:21:15.631Z,33.83
2018-11-26T01:23:43.879Z,34.77
2018-11-26T01:26:12.259Z,31.93
2018-11-26T01:28:40.579Z,32.73
2018-11-26T01:31:08.921Z,33.40
2018-11-26T01:33:37.117Z,32.93
2018-11-26T01:36:05.522Z,34.93
2018-11-26T01:38:33.828Z,34.10
2018-11-26T01:41:02.187Z,35.90
2018-11-26T01:43:30.503Z,33.90
2018-11-26T01:45:58.768Z,34.27
2018-11-26T01:48:27.150Z,31.33
2018-11-26T01:50:55.340Z,35.27
2018-11-26T01:53:23.780Z,33.87
2018-11-26T01:55:52.203Z,32.53
2018-11-26T01:58:20.464Z,35.00
2018-11-26T02:00:48.907Z,34.43
2018-11-26T02:03:17.433Z,33.37
2018-11-26T02:05:45.750Z,36.50
2018-11-26T02:08:14.150Z,31.60
2018-11-26T02:10:42.472Z,34.00
2018-11-26T02:13:10.834Z,33.83
2018-11-26T02:15:41.404Z,33.13
2018-11-26T02:18:10.384Z,32.27
2018-11-26T02:20:38.688Z,34.80
2018-11-26T02:23:07.401Z,32.07
2018-11-26T02:25:35.792Z,32.30
2018-11-26T02:28:04.272Z,35.33
2018-11-26T02:30:33.056Z,33.23
2018-11-26T02:33:01.413Z,32.10
2018-11-26T02:35:29.929Z,32.83
2018-11-26T02:37:59.455Z,31.23
2018-11-26T02:40:31.042Z,32.30
2018-11-26T02:42:59.638Z,34.77
2018-11-26T02:45:28.960Z,32.77
2018-11-26T02:47:57.671Z,33.60
2018-11-26T02:50:26.212Z,34.57
2018-11-26T02:52:55.295Z,33.00
2018-11-26T02:55:23.851Z,33.97
2018-11-26T02:57:52.179Z,33.10
2018-11-26T03:00:21.255Z,35.37
2018-11-26T03:02:49.845Z,36.00
2018-11-26T03:05:25.517Z,35.93
2018-11-26T03:07:54.235Z,32.57
2018-11-26T03:10:23.107Z,34.40
2018-11-26T03:12:51.957Z,34.43
2018-11-26T03:15:20.393Z,34.60
2018-11-26T03:17:48.967Z,35.47
2018-11-26T03:20:17.365Z,36.60
2018-11-26T03:22:45.751Z,37.90
2018-11-26T03:25:14.257Z,35.37
2018-11-26T03:27:42.890Z,35.83
2018-11-26T03:30:18.006Z,36.83
2018-11-26T03:32:47.011Z,35.90
2018-11-26T03:35:15.338Z,36.30
2018-11-26T03:37:43.872Z,39.23
2018-11-26T03:40:13.594Z,36.20
2018-11-26T03:42:42.760Z,38.67
2018-11-26T03:45:14.695Z,40.47
2018-11-26T03:47:43.322Z,38.30
2018-11-26T03:50:13.042Z,37.43
2018-11-26T03:52:43.007Z,38.00
2018-11-26T03:55:12.319Z,38.37
2018-11-26T03:57:41.123Z,37.90
2018-11-26T04:00:13.396Z,38.23
2018-11-26T04:02:42.060Z,37.37
2018-11-26T04:05:11.255Z,40.20
2018-11-26T04:07:39.884Z,39.87
2018-11-26T04:10:11.411Z,43.83
2018-11-26T04:12:40.409Z,40.27
2018-11-26T04:15:11.234Z,40.30
2018-11-26T04:17:41.666Z,40.57
2018-11-26T04:20:10.298Z,42.67
2018-11-26T04:22:38.923Z,40.07
2018-11-26T04:25:08.575Z,41.47
2018-11-26T04:27:36.989Z,42.50
2018-11-26T04:30:08.332Z,43.47
2018-11-26T04:32:37.190Z,42.50
2018-11-26T04:35:06.244Z,41.63
2018-11-26T04:37:34.652Z,43.00
2018-11-26T04:40:03.051Z,40.10
2018-11-26T04:42:31.471Z,42.57
2018-11-26T04:44:59.829Z,42.67
2018-11-26T04:47:28.088Z,43.13
2018-11-26T04:49:56.500Z,42.67
2018-11-26T04:52:24.758Z,43.07
2018-11-26T04:54:53.056Z,42.20
2018-11-26T04:57:21.428Z,41.73
2018-11-26T04:59:50.591Z,41.20
2018-11-26T05:02:18.938Z,40.20
2018-11-26T05:04:47.283Z,44.20
2018-11-26T05:07:15.646Z,42.63
2018-11-26T05:09:43.839Z,43.07
2018-11-26T05:12:12.194Z,43.20
2018-11-26T05:14:40.449Z,44.57
2018-11-26T05:17:08.823Z,46.60
2018-11-26T05:19:37.094Z,44.20
2018-11-26T05:22:05.699Z,45.50
2018-11-26T05:24:34.098Z,46.10
2018-11-26T05:27:02.371Z,47.40
2018-11-26T05:29:30.607Z,44.97
2018-11-26T05:31:59.085Z,47.30
2018-11-26T05:34:27.405Z,45.17
2018-11-26T05:36:57.971Z,47.70
2018-11-26T05:39:26.784Z,45.90
2018-11-26T05:41:55.381Z,46.30
2018-11-26T05:44:24.105Z,46.33
2018-11-26T05:46:53.117Z,45.77
2018-11-26T05:49:22.921Z,47.17
2018-11-26T05:51:50.929Z,47.10
2018-11-26T05:54:19.329Z,49.13
2018-11-26T05:56:48.351Z,47.80
2018-11-26T05:59:16.681Z,47.57
2018-11-26T06:01:45.216Z,45.60
2018-11-26T06:04:13.416Z,48.23
2018-11-26T06:06:41.627Z,49.37
2018-11-26T06:09:10.989Z,48.00
2018-11-26T06:11:40.445Z,46.47
2018-11-26T06:14:08.674Z,46.27
2018-11-26T06:16:37.411Z,47.17
2018-11-26T06:19:05.816Z,47.23
2018-11-26T06:21:34.040Z,48.83
2018-11-26T06:24:02.370Z,48.20
2018-11-26T06:26:30.673Z,50.50
2018-11-26T06:28:58.868Z,49.80
2018-11-26T06:31:27.162Z,48.37
2018-11-26T06:33:55.361Z,50.87
2018-11-26T06:36:23.534Z,48.03
2018-11-26T06:38:51.837Z,51.43
2018-11-26T06:41:20.297Z,49.10
2018-11-26T06:43:48.496Z,48.83
2018-11-26T06:46:16.697Z,51.53
2018-11-26T06:48:49.962Z,49.80
2018-11-26T06:51:18.264Z,51.20
2018-11-26T06:53:47.607Z,48.40
2018-11-26T06:56:15.800Z,49.30
2018-11-26T06:58:44.053Z,50.20
2018-11-26T07:01:12.559Z,50.10
2018-11-26T07:03:40.831Z,50.70
2018-11-26T07:06:09.129Z,52.80
2018-11-26T07:08:37.522Z,51.70
2018-11-26T07:11:06.126Z,51.47
2018-11-26T07:13:34.359Z,51.23
2018-11-26T07:16:02.652Z,52.57
2018-11-26T07:18:30.919Z,49.87
2018-11-26T07:20:59.220Z,53.17
2018-11-26T07:23:27.446Z,53.33
2018-11-26T07:25:55.888Z,53.27
2018-11-26T07:28:24.092Z,53.27
2018-11-26T07:30:52.264Z,53.43
2018-11-26T07:33:20.681Z,53.20
2018-11-26T07:35:48.843Z,54.87
2018-11-26T07:38:17.131Z,51.30
2018-11-26T07:40:45.388Z,52.63
2018-11-26T07:43:14.198Z,48.83
2018-11-26T07:45:42.432Z,50.60
2018-11-26T07:48:11.872Z,51.03
2018-11-26T07:50:40.187Z,51.93
2018-11-26T07:53:10.208Z,49.57
2018-11-26T07:55:39.720Z,51.80
2018-11-26T07:58:08.003Z,62.30
2018-11-26T08:00:36.270Z,54.23
2018-11-26T08:03:04.869Z,53.10
2018-11-26T08:05:33.064Z,50.90
2018-11-26T08:08:01.461Z,50.40
2018-11-26T08:10:29.665Z,50.50
2018-11-26T08:12:57.976Z,50.53
2018-11-26T08:15:27.576Z,50.47
2018-11-26T08:17:55.983Z,51.37
2018-11-26T08:20:24.226Z,47.90
2018-11-26T08:22:52.404Z,49.70
2018-11-26T08:25:21.745Z,49.83
2018-11-26T08:27:50.560Z,49.17
2018-11-26T08:30:24.454Z,48.60
2018-11-26T08:32:58.175Z,48.80
2018-11-26T08:35:26.713Z,52.20
2018-11-26T08:38:01.318Z,50.67
2018-11-26T08:40:30.868Z,48.83
2018-11-26T08:43:15.304Z,47.37
2018-11-26T08:45:52.106Z,46.20
2018-11-26T08:48:25.513Z,46.20
2018-11-26T08:50:54.945Z,50.30
2018-11-26T08:53:23.805Z,48.57
2018-11-26T08:55:52.186Z,45.97
2018-11-26T08:58:20.625Z,47.30
2018-11-26T09:00:54.365Z,47.90
2018-11-26T09:03:22.933Z,45.90
2018-11-26T09:05:59.973Z,47.60
2018-11-26T09:08:29.671Z,47.37
2018-11-26T09:10:58.819Z,47.13
2018-11-26T09:13:27.847Z,47.20
2018-11-26T09:15:56.468Z,46.63
2018-11-26T09:18:24.739Z,46.93
2018-11-26T09:20:53.288Z,48.10
2018-11-26T09:23:21.602Z,48.07
2018-11-26T09:25:49.966Z,49.00
2018-11-26T09:28:18.207Z,48.50
2018-11-26T09:30:46.533Z,46.83
2018-11-26T09:33:14.994Z,47.43
2018-11-26T09:35:44.077Z,46.27
2018-11-26T09:38:13.109Z,44.20
2018-11-26T09:40:41.589Z,47.50
2018-11-26T09:43:09.859Z,46.03
2018-11-26T09:45:40.459Z,46.77
2018-11-26T09:48:06.799Z,46.63
2018-11-26T09:50:35.178Z,44.80
2018-11-26T09:53:03.635Z,44.37
2018-11-26T09:55:32.073Z,43.67
2018-11-26T09:58:01.474Z,42.67
2018-11-26T10:00:31.968Z,43.87
2018-11-26T10:03:02.550Z,42.17
2018-11-26T10:05:31.131Z,44.10
2018-11-26T10:08:00.877Z,43.90
2018-11-26T10:10:30.166Z,43.47
2018-11-26T10:12:58.632Z,43.67
2018-11-26T10:15:27.899Z,43.47
2018-11-26T10:17:56.527Z,41.70
2018-11-26T10:20:24.921Z,40.83
2018-11-26T10:22:54.804Z,41.53
2018-11-26T10:25:23.707Z,44.40
2018-11-26T10:27:52.081Z,42.47
2018-11-26T10:30:23.248Z,42.47
2018-11-26T10:32:52.111Z,44.07
2018-11-26T10:35:20.866Z,41.50
2018-11-26T10:37:49.315Z,40.50
2018-11-26T10:40:23.964Z,41.47
2018-11-26T10:42:52.430Z,41.23
2018-11-26T10:45:22.683Z,40.10
2018-11-26T10:47:51.169Z,41.27
2018-11-26T10:50:21.695Z,42.43
2018-11-26T10:52:55.473Z,41.70
2018-11-26T10:55:29.331Z,42.57
2018-11-26T10:57:57.945Z,41.67
2018-11-26T11:00:31.890Z,42.27
2018-11-26T11:03:00.453Z,41.93
2018-11-26T11:05:29.053Z,42.50
2018-11-26T11:07:57.567Z,41.23
2018-11-26T11:10:30.885Z,40.57
2018-11-26T11:12:59.448Z,41.10
2018-11-26T11:15:28.049Z,38.90
2018-11-26T11:17:57.357Z,38.70
2018-11-26T11:20:27.471Z,38.60
2018-11-26T11:22:55.922Z,39.40
2018-11-26T11:25:26.728Z,39.93
2018-11-26T11:27:56.322Z,39.37
2018-11-26T11:30:28.963Z,39.50
2018-11-26T11:32:57.603Z,35.30
2018-11-26T11:35:26.186Z,37.67
2018-11-26T11:37:55.978Z,37.23
2018-11-26T11:40:29.752Z,39.03
2018-11-26T11:43:00.079Z,38.23
2018-11-26T11:45:30.188Z,37.40
2018-11-26T11:47:59.335Z,38.40
2018-11-26T11:50:28.730Z,35.87
2018-11-26T11:53:00.002Z,37.80
2018-11-26T11:55:28.467Z,39.70
2018-11-26T11:57:58.865Z,37.20
2018-11-26T12:00:35.439Z,37.77
2018-11-26T12:03:10.808Z,38.30
2018-11-26T12:05:39.193Z,37.93
2018-11-26T12:08:08.258Z,37.80
2018-11-26T12:10:36.741Z,37.00
2018-11-26T12:13:06.983Z,37.60
2018-11-26T12:15:37.123Z,37.10
2018-11-26T12:18:06.658Z,39.30
2018-11-26T12:20:35.694Z,39.20
2018-11-26T12:23:04.306Z,41.03
2018-11-26T12:25:32.669Z,38.57
2018-11-26T12:28:01.197Z,35.87
2018-11-26T12:30:31.735Z,35.20
2018-11-26T12:33:00.121Z,35.37
2018-11-26T12:35:28.510Z,38.07
2018-11-26T12:37:56.862Z,38.57
2018-11-26T12:40:26.088Z,35.67
2018-11-26T12:42:57.220Z,36.57
2018-11-26T12:45:28.397Z,35.80
2018-11-26T12:47:57.182Z,36.87
2018-11-26T12:50:25.694Z,35.97
2018-11-26T12:52:54.454Z,34.27
2018-11-26T12:55:23.860Z,35.00
2018-11-26T12:57:58.436Z,34.47
2018-11-26T13:00:28.476Z,32.80
2018-11-26T13:03:01.097Z,35.90
2018-11-26T13:05:29.561Z,36.53
2018-11-26T13:07:57.818Z,38.57
2018-11-26T13:10:26.256Z,35.57
2018-11-26T13:12:54.594Z,33.67
2018-11-26T13:15:25.136Z,33.83
2018-11-26T13:17:54.240Z,37.33
2018-11-26T13:20:25.020Z,35.10
2018-11-26T13:22:54.062Z,35.80
2018-11-26T13:25:25.982Z,33.87
2018-11-26T13:27:57.354Z,32.33
2018-11-26T13:30:28.650Z,34.20
2018-11-26T13:32:58.982Z,33.37
2018-11-26T13:35:27.425Z,33.20
2018-11-26T13:37:55.916Z,34.57
2018-11-26T13:40:24.290Z,32.53
2018-11-26T13:42:52.864Z,35.13
2018-11-26T13:45:26.232Z,36.03
2018-11-26T13:47:54.712Z,34.20
2018-11-26T13:50:26.987Z,35.23
2018-11-26T13:52:58.865Z,36.00
2018-11-26T13:55:28.299Z,35.37
2018-11-26T13:57:59.116Z,35.03
2018-11-26T14:00:29.442Z,32.17
2018-11-26T14:02:57.728Z,34.33
2018-11-26T14:05:26.247Z,36.03
2018-11-26T14:07:54.708Z,35.27
2018-11-26T14:10:25.831Z,37.73
2018-11-26T14:13:15.678Z,34.20
2018-11-26T14:15:44.061Z,35.20
2018-11-26T14:18:12.481Z,36.50
2018-11-26T14:20:40.807Z,36.90
2018-11-26T14:23:09.226Z,38.03
2018-11-26T14:25:38.238Z,37.57
2018-11-26T14:28:06.698Z,36.53
2018-11-26T14:30:35.036Z,37.50
2018-11-26T14:33:03.489Z,37.43
2018-11-26T14:35:31.921Z,40.70
2018-11-26T14:38:02.862Z,37.60
2018-11-26T14:40:39.595Z,40.00
2018-11-26T14:43:08.161Z,39.13
2018-11-26T14:45:36.842Z,37.40
2018-11-26T14:48:05.909Z,40.07
2018-11-26T14:50:34.279Z,38.30
2018-11-26T14:53:05.061Z,38.00
2018-11-26T14:55:36.431Z,37.93
2018-11-26T14:58:05.145Z,38.57
2018-11-26T15:00:34.495Z,37.80
2018-11-26T15:03:03.053Z,41.90
2018-11-26T15:05:31.725Z,40.70
2018-11-26T15:08:00.289Z,39.23
2018-11-26T15:10:28.748Z,40.30
2018-11-26T15:12:57.410Z,39.00
2018-11-26T15:15:26.738Z,41.40
2018-11-26T15:17:55.258Z,39.37
2018-11-26T15:20:28.131Z,39.83
2018-11-26T15:22:58.798Z,39.67
2018-11-26T15:25:32.853Z,37.90
2018-11-26T15:28:06.632Z,40.87
2018-11-26T15:30:35.813Z,39.70
2018-11-26T15:33:05.841Z,41.00
2018-11-26T15:35:34.677Z,41.20
2018-11-26T15:38:04.487Z,49.33
2018-11-26T15:40:33.401Z,48.15
2018-11-26T15:43:02.092Z,43.03
2018-11-26T15:45:30.769Z,42.50
2018-11-26T15:48:02.270Z,38.53
2018-11-26T15:50:31.730Z,40.57
2018-11-26T15:53:00.774Z,41.57
2018-11-26T15:55:29.906Z,38.73
2018-11-26T15:57:59.227Z,42.17
2018-11-26T16:00:28.717Z,40.97
2018-11-26T16:02:58.060Z,39.03
2018-11-26T16:05:29.622Z,40.57
2018-11-26T16:08:03.438Z,40.07
2018-11-26T16:10:32.684Z,41.50
2018-11-26T16:13:02.968Z,41.40
2018-11-26T16:15:40.802Z,39.23
2018-11-26T16:18:15.218Z,41.00
2018-11-26T16:20:45.521Z,40.90
2018-11-26T16:23:14.282Z,41.70
2018-11-26T16:25:45.942Z,44.70
2018-11-26T16:28:17.704Z,42.23
2018-11-26T16:30:46.395Z,39.70
2018-11-26T16:33:15.208Z,42.53
2018-11-26T16:35:49.114Z,42.83
2018-11-26T16:38:18.359Z,41.73
2018-11-26T16:40:46.837Z,41.50
2018-11-26T16:43:15.397Z,40.90
2018-11-26T16:45:44.095Z,42.30
2018-11-26T16:48:12.727Z,41.87
2018-11-26T16:50:41.477Z,41.13
2018-11-26T16:53:10.757Z,45.23
2018-11-26T16:55:39.422Z,42.80
2018-11-26T16:58:08.833Z,41.67
2018-11-26T17:00:37.880Z,42.60
2018-11-26T17:03:06.604Z,43.63
2018-11-26T17:05:38.166Z,44.50
2018-11-26T17:08:12.736Z,44.60
2018-11-26T17:10:42.946Z,40.17
2018-11-26T17:13:14.510Z,38.57
2018-11-26T17:15:43.169Z,42.57
2018-11-26T17:18:12.340Z,42.87
2018-11-26T17:20:41.587Z,41.40
2018-11-26T17:23:11.307Z,41.57
2018-11-26T17:25:40.969Z,39.90
2018-11-26T17:28:10.343Z,42.60
2018-11-26T17:30:40.207Z,41.53
2018-11-26T17:33:11.546Z,39.53
2018-11-26T17:35:39.969Z,41.27
2018-11-26T17:38:12.788Z,39.53
2018-11-26T17:40:41.198Z,40.03
2018-11-26T17:43:13.594Z,42.90
2018-11-26T17:45:42.024Z,41.77
2018-11-26T17:48:10.424Z,39.40
2018-11-26T17:50:41.406Z,39.33
2018-11-26T17:53:14.792Z,38.50
2018-11-26T17:55:55.506Z,38.17
2018-11-26T17:58:25.819Z,36.13
2018-11-26T18:01:05.432Z,36.23
2018-11-26T18:03:33.743Z,39.83
2018-11-26T18:06:02.055Z,36.77
2018-11-26T18:08:30.395Z,36.73
2018-11-26T18:10:58.705Z,37.57
2018-11-26T18:13:26.985Z,35.73
2018-11-26T18:15:55.390Z,35.63
2018-11-26T18:18:23.968Z,38.20
2018-11-26T18:20:52.079Z,37.60
2018-11-26T18:23:20.493Z,38.53
2018-11-26T18:25:48.933Z,36.87
2018-11-26T18:28:17.836Z,35.00
2018-11-26T18:30:49.997Z,35.03
2018-11-26T18:33:18.489Z,37.67
2018-11-26T18:35:47.955Z,34.73
2018-11-26T18:38:17.890Z,36.13
2018-11-26T18:40:50.372Z,34.87
2018-11-26T18:43:19.092Z,35.97
2018-11-26T18:45:47.552Z,33.50
2018-11-26T18:48:16.440Z,36.83
2018-11-26T18:50:45.300Z,34.80
2018-11-26T18:53:14.117Z,34.67
2018-11-26T18:55:43.137Z,35.13
2018-11-26T18:58:13.136Z,33.90
2018-11-26T19:00:48.740Z,33.67
2018-11-26T19:03:17.743Z,35.50
2018-11-26T19:05:49.315Z,33.57
2018-11-26T19:08:18.919Z,33.03
2018-11-26T19:10:58.787Z,35.60
2018-11-26T19:13:48.947Z,33.53
2018-11-26T19:16:21.439Z,33.47
2018-11-26T19:18:50.071Z,32.80
2018-11-26T19:21:19.387Z,34.20
2018-11-26T19:23:48.028Z,34.60
2018-11-26T19:26:17.520Z,34.43
2018-11-26T19:28:46.364Z,32.73
2018-11-26T19:31:29.862Z,34.93
2018-11-26T19:33:59.351Z,36.40
2018-11-26T19:36:36.386Z,34.17
2018-11-26T19:39:08.450Z,35.27
2018-11-26T19:41:37.574Z,34.23
2018-11-26T19:44:08.150Z,35.80
2018-11-26T19:46:36.821Z,33.63
2018-11-26T19:49:05.426Z,34.60
2018-11-26T19:51:35.059Z,34.70
2018-11-26T19:54:04.854Z,35.97
2018-11-26T19:56:33.448Z,36.90
2018-11-26T19:59:02.137Z,36.60
2018-11-26T20:01:31.641Z,37.30
2018-11-26T20:04:15.247Z,36.47
2018-11-26T20:06:43.697Z,35.73
2018-11-26T20:09:12.179Z,34.23
2018-11-26T20:11:40.835Z,36.80
2018-11-26T20:14:21.205Z,37.17
2018-11-26T20:16:44.071Z,35.87
2018-11-26T20:19:12.520Z,36.33
2018-11-26T20:21:41.188Z,35.63
2018-11-26T20:24:10.124Z,36.50
2018-11-26T20:26:38.467Z,33.77
2018-11-26T20:29:08.797Z,34.87
2018-11-26T20:31:37.337Z,35.23
2018-11-26T20:34:07.299Z,35.57
2018-11-26T20:36:35.872Z,35.77
2018-11-26T20:39:08.094Z,36.23
2018-11-26T20:41:37.116Z,33.87
2018-11-26T20:44:07.326Z,35.90
2018-11-26T20:46:36.507Z,39.10
2018-11-26T20:49:07.449Z,35.67
2018-11-26T20:51:36.372Z,33.90
2018-11-26T20:54:05.471Z,36.20
2018-11-26T20:56:34.765Z,36.93
2018-11-26T20:59:03.373Z,37.10
2018-11-26T21:01:31.754Z,36.30
2018-11-26T21:04:00.941Z,33.70
2018-11-26T21:06:29.525Z,35.77
2018-11-26T21:08:58.121Z,37.23
2018-11-26T21:11:26.609Z,36.57
2018-11-26T21:13:55.269Z,36.13
2018-11-26T21:16:24.697Z,37.80
2018-11-26T21:18:53.214Z,37.63
2018-11-26T21:21:22.277Z,36.50
2018-11-26T21:23:51.755Z,35.60
2018-11-26T21:26:20.664Z,36.03
2018-11-26T21:28:50.358Z,34.23
2018-11-26T21:31:18.881Z,36.30
2018-11-26T21:33:48.437Z,38.17
2018-11-26T21:36:17.608Z,37.97
2018-11-26T21:38:45.934Z,35.30
2018-11-26T21:41:14.425Z,36.87
2018-11-26T21:43:42.907Z,35.97
2018-11-26T21:46:16.686Z,37.30
2018-11-26T21:48:44.992Z,34.10
2018-11-26T21:51:13.471Z,37.30
2018-11-26T21:53:42.553Z,38.20
2018-11-26T21:56:10.819Z,38.10
2018-11-26T21:58:39.192Z,37.40
2018-11-26T22:01:09.451Z,36.73
2018-11-26T22:03:37.795Z,39.23
2018-11-26T22:06:06.446Z,37.83
2018-11-26T22:08:35.047Z,38.23
2018-11-26T22:11:03.498Z,37.60
2018-11-26T22:13:31.907Z,38.23
2018-11-26T22:16:00.195Z,39.07
2018-11-26T22:18:28.569Z,36.70
2018-11-26T22:20:56.974Z,38.90
2018-11-26T22:23:25.363Z,37.00
2018-11-26T22:25:53.684Z,40.97
2018-11-26T22:28:21.988Z,38.90
2018-11-26T22:30:50.344Z,39.93
2018-11-26T22:33:19.229Z,38.20
2018-11-26T22:35:47.631Z,39.07
2018-11-26T22:38:15.810Z,37.50
2018-11-26T22:40:44.318Z,39.50
2018-11-26T22:43:12.815Z,40.17
2018-11-26T22:45:41.242Z,39.70
2018-11-26T22:48:17.439Z,36.70
2018-11-26T22:50:46.329Z,38.63
2018-11-26T22:53:14.718Z,38.20
2018-11-26T22:55:44.314Z,38.47
2018-11-26T22:58:14.706Z,39.33
2018-11-26T23:00:50.997Z,37.23
2018-11-26T23:03:22.089Z,38.20
2018-11-26T23:05:50.531Z,41.13
2018-11-26T23:08:19.115Z,38.93
2018-11-26T23:10:47.696Z,40.13
2018-11-26T23:13:16.206Z,39.33
2018-11-26T23:15:45.409Z,39.63
2018-11-26T23:18:14.220Z,40.33
2018-11-26T23:20:42.741Z,37.27
2018-11-26T23:23:11.169Z,38.37
2018-11-26T23:25:39.769Z,38.33
2018-11-26T23:28:08.929Z,42.00
2018-11-26T23:30:37.446Z,38.83
2018-11-26T23:33:07.638Z,38.53
2018-11-26T23:35:36.174Z,37.20
2018-11-26T23:38:04.982Z,40.93
2018-11-26T23:40:34.513Z,38.77
2018-11-26T23:43:03.939Z,38.60
2018-11-26T23:45:32.563Z,41.50
2018-11-26T23:48:01.060Z,39.67
2018-11-26T23:50:29.646Z,40.67
2018-11-26T23:52:58.739Z,41.00
2018-11-26T23:55:27.319Z,39.43
2018-11-26T23:57:56.016Z,41.30
